Osgood, IN

9:42 AM EST on December 07, 2016 (GMT -0500)
APRSWXNET | | Change Station

Elev 935 ft 39.13 °N, 85.29 °W | Updated 26 minutes ago

Clear
Clear
29 °F
Feels Like 29 °F
N
3
Wind Variable Wind from West
Gusts 7.0 mph

Today
High -- | Low -- °F
--% Chance of Precip.
Yesterday
High -- | Low -- °F
Precip. -- in
Pressure 30.18 in
Visibility 10.0 miles
Clouds Clear
Windchill 29 °F
Dew Point 26 °F
Humidity 90%
Rainfall in
Snow Depth Not available.
7:47 AM 5:18 PM
First Quarter, 53% visible
METAR KBAK 071345Z 22004KT 10SM SKC M03/M03 A3018
Pressure 30.18 in
Visibility 10.0 miles
Clouds Clear
Windchill 29 °F
Dew Point 26 °F
Humidity 90%
Rainfall in
Snow Depth Not available.
7:47 AM 5:18 PM
First Quarter, 53% visible
METAR KBAK 071345Z 22004KT 10SM SKC M03/M03 A3018

10-Day Weather Forecast

Almanac

Astronomy

Dec. 07, 2016 Rise Set
Actual Time
Civil Twilight
Nautical Twilight
Astronomical Twilight
Moon
Length of Visible Light
Length of Day
Tomorrow will be .
, % of the Moon is Illuminated

Today's Extremes

State Highs State Lows

Community

WunderPhotos

Upload Photos

1,956,116 photos uploaded!

WunderBlog® & News

Nearby

Air Quality

  Air Quality AQ Index Pollutant
Not available.

Snow Depth

Station Depth Elevation

Earthquake Activity

City Distance Mag. Time & Date
Minimum magnitude displayed is 2.5.

Coastal Water Temperatures

Place Temperature

Stations

Nearby Weather Stations

Station Location Temp. Windchill Dew Point Humidity Wind Precip. Elev Updated Type
                   

Watches & Warnings

There are currently no watches in effect.